createdAt,value
2022-09-22T00:01:09.204Z,100.00
2022-09-22T00:03:37.572Z,100.00
2022-09-22T00:06:06.103Z,100.00
2022-09-22T00:08:35.120Z,100.00
2022-09-22T00:11:04.127Z,100.00
2022-09-22T00:13:32.286Z,100.00
2022-09-22T00:16:00.682Z,100.00
2022-09-22T00:18:29.974Z,100.00
2022-09-22T00:20:57.654Z,100.00
2022-09-22T00:23:25.926Z,100.00
2022-09-22T00:25:53.551Z,100.00
2022-09-22T00:28:21.820Z,100.00
2022-09-22T00:30:49.399Z,100.00
2022-09-22T00:33:17.012Z,100.00
2022-09-22T00:35:46.011Z,100.00
2022-09-22T00:38:13.575Z,100.00
2022-09-22T00:40:41.200Z,100.00
2022-09-22T00:43:13.202Z,100.00
2022-09-22T00:45:40.821Z,100.00
2022-09-22T00:48:08.492Z,100.00
2022-09-22T00:50:36.119Z,100.00
2022-09-22T00:53:07.039Z,100.00
2022-09-22T00:55:37.744Z,100.00
2022-09-22T00:58:07.591Z,100.00
2022-09-22T01:00:35.144Z,100.00
2022-09-22T01:03:05.746Z,100.00
2022-09-22T01:05:33.836Z,100.00
2022-09-22T01:08:01.738Z,100.00
2022-09-22T01:10:30.759Z,100.00
2022-09-22T01:13:02.417Z,100.00
2022-09-22T01:15:33.851Z,100.00
2022-09-22T01:18:08.890Z,100.00
2022-09-22T01:20:51.667Z,100.00
2022-09-22T01:23:36.916Z,100.00
2022-09-22T01:26:13.995Z,100.00
2022-09-22T01:28:59.468Z,100.00
2022-09-22T01:31:33.354Z,100.00
2022-09-22T01:34:06.754Z,100.00
2022-09-22T01:36:38.818Z,100.00
2022-09-22T01:39:08.865Z,100.00
2022-09-22T01:41:52.392Z,100.00
2022-09-22T01:44:25.840Z,100.00
2022-09-22T01:46:57.172Z,100.00
2022-09-22T01:49:26.460Z,100.00
2022-09-22T01:51:57.279Z,100.00
2022-09-22T01:54:27.388Z,100.00
2022-09-22T01:56:58.601Z,100.00
2022-09-22T01:59:29.944Z,100.00
2022-09-22T02:02:01.701Z,100.00
2022-09-22T02:04:32.626Z,100.00
2022-09-22T02:07:02.104Z,100.00
2022-09-22T02:09:32.786Z,100.00
2022-09-22T02:12:01.105Z,100.00
2022-09-22T02:14:29.241Z,100.00
2022-09-22T02:16:57.213Z,100.00
2022-09-22T02:19:29.733Z,100.00
2022-09-22T02:21:57.488Z,100.00
2022-09-22T02:24:32.611Z,100.00
2022-09-22T02:27:01.533Z,100.00
2022-09-22T02:29:31.117Z,100.00
2022-09-22T02:31:59.706Z,100.00
2022-09-22T02:34:29.280Z,100.00
2022-09-22T02:36:59.837Z,100.00
2022-09-22T02:39:29.748Z,100.00
2022-09-22T02:42:11.536Z,100.00
2022-09-22T02:44:44.977Z,100.00
2022-09-22T02:47:14.512Z,100.00
2022-09-22T02:49:44.467Z,100.00
2022-09-22T02:52:13.867Z,100.00
2022-09-22T02:54:41.485Z,100.00
2022-09-22T02:57:10.374Z,100.00
2022-09-22T02:59:37.929Z,100.00
2022-09-22T03:02:05.514Z,100.00
2022-09-22T03:04:33.356Z,100.00
2022-09-22T03:07:02.392Z,100.00
2022-09-22T03:09:29.959Z,100.00
2022-09-22T03:11:57.490Z,100.00
2022-09-22T03:14:25.069Z,100.00
2022-09-22T03:16:52.630Z,100.00
2022-09-22T03:19:20.211Z,100.00
2022-09-22T03:21:47.781Z,100.00
2022-09-22T03:24:16.811Z,100.00
2022-09-22T03:26:44.372Z,100.00
2022-09-22T03:29:11.935Z,100.00
2022-09-22T03:31:39.680Z,100.00
2022-09-22T03:34:07.239Z,100.00
2022-09-22T03:36:35.227Z,100.00
2022-09-22T03:39:02.826Z,100.00
2022-09-22T03:41:31.910Z,100.00
2022-09-22T03:43:59.565Z,100.00
2022-09-22T03:46:27.159Z,100.00
2022-09-22T03:48:54.767Z,100.00
2022-09-22T03:51:22.299Z,100.00
2022-09-22T03:53:49.796Z,100.00
2022-09-22T03:56:17.379Z,100.00
2022-09-22T03:58:46.309Z,100.00
2022-09-22T04:01:14.058Z,100.00
2022-09-22T04:03:41.906Z,100.00
2022-09-22T04:06:09.652Z,100.00
2022-09-22T04:08:37.163Z,100.00
2022-09-22T04:11:05.485Z,100.00
2022-09-22T04:13:33.073Z,100.00
2022-09-22T04:16:02.202Z,100.00
2022-09-22T04:18:29.951Z,100.00
2022-09-22T04:20:58.215Z,100.00
2022-09-22T04:23:26.038Z,100.00
2022-09-22T04:25:54.018Z,100.00
2022-09-22T04:28:21.579Z,100.00
2022-09-22T04:30:49.218Z,100.00
2022-09-22T04:33:18.292Z,100.00
2022-09-22T04:35:45.868Z,100.00
2022-09-22T04:38:14.689Z,100.00
2022-09-22T04:40:42.500Z,100.00
2022-09-22T04:43:10.214Z,100.00
2022-09-22T04:45:39.784Z,100.00
2022-09-22T04:48:07.706Z,100.00
2022-09-22T04:50:36.617Z,100.00
2022-09-22T04:53:06.754Z,100.00
2022-09-22T04:55:34.619Z,100.00
2022-09-22T04:58:02.488Z,100.00
2022-09-22T05:00:30.323Z,100.00
2022-09-22T05:02:57.921Z,100.00
2022-09-22T05:05:25.500Z,100.00
2022-09-22T05:07:54.849Z,100.00
2022-09-22T05:10:25.118Z,100.00
2022-09-22T05:12:53.535Z,100.00
2022-09-22T05:15:21.261Z,100.00
2022-09-22T05:17:49.464Z,100.00
2022-09-22T05:20:17.377Z,100.00
2022-09-22T05:22:45.128Z,100.00
2022-09-22T05:25:15.162Z,100.00
2022-09-22T05:27:44.627Z,100.00
2022-09-22T05:30:12.686Z,100.00
2022-09-22T05:32:42.639Z,100.00
2022-09-22T05:35:10.509Z,100.00
2022-09-22T05:37:38.098Z,100.00
2022-09-22T05:40:07.138Z,100.00
2022-09-22T05:42:40.140Z,100.00
2022-09-22T05:45:08.372Z,100.00
2022-09-22T05:47:35.957Z,100.00
2022-09-22T05:50:03.608Z,100.00
2022-09-22T05:52:31.176Z,100.00
2022-09-22T05:54:58.716Z,100.00
2022-09-22T05:57:27.535Z,100.00
2022-09-22T05:59:56.516Z,100.00
2022-09-22T06:02:26.458Z,100.00
2022-09-22T06:04:54.631Z,100.00
2022-09-22T06:07:22.818Z,100.00
2022-09-22T06:09:50.444Z,100.00
2022-09-22T06:12:18.174Z,100.00
2022-09-22T06:14:45.801Z,100.00
2022-09-22T06:17:14.759Z,100.00
2022-09-22T06:19:43.169Z,100.00
2022-09-22T06:22:11.632Z,100.00
2022-09-22T06:24:39.197Z,100.00
2022-09-22T06:27:06.822Z,100.00
2022-09-22T06:29:34.424Z,100.00
2022-09-22T06:32:02.224Z,100.00
2022-09-22T06:34:32.936Z,100.00
2022-09-22T06:37:00.522Z,100.00
2022-09-22T06:39:28.067Z,100.00
2022-09-22T06:41:56.404Z,100.00
2022-09-22T06:44:24.161Z,100.00
2022-09-22T06:46:51.692Z,100.00
2022-09-22T06:49:20.196Z,100.00
2022-09-22T06:51:49.498Z,100.00
2022-09-22T06:54:17.071Z,100.00
2022-09-22T06:56:44.588Z,100.00
2022-09-22T06:59:13.465Z,100.00
2022-09-22T07:01:42.085Z,100.00
2022-09-22T07:04:09.737Z,100.00
2022-09-22T07:06:39.606Z,100.00
2022-09-22T07:09:09.197Z,100.00
2022-09-22T07:11:40.060Z,100.00
2022-09-22T07:14:08.404Z,100.00
2022-09-22T07:16:36.470Z,100.00
2022-09-22T07:19:04.784Z,100.00
2022-09-22T07:21:35.233Z,98.59
2022-09-22T07:24:03.236Z,94.98
2022-09-22T07:26:33.305Z,92.61
2022-09-22T07:29:01.426Z,92.41
2022-09-22T07:31:30.444Z,90.88
2022-09-22T07:33:59.304Z,90.16
2022-09-22T07:36:27.995Z,89.88
2022-09-22T07:38:57.466Z,88.32
2022-09-22T07:41:27.497Z,86.51
2022-09-22T07:43:57.344Z,83.55
2022-09-22T07:46:24.990Z,81.37
2022-09-22T07:48:52.662Z,83.53
2022-09-22T07:51:21.762Z,79.71
2022-09-22T07:53:50.048Z,75.54
2022-09-22T07:56:18.792Z,75.79
2022-09-22T07:58:49.990Z,74.94
2022-09-22T08:01:19.614Z,71.80
2022-09-22T08:03:47.358Z,68.73
2022-09-22T08:06:16.183Z,66.82
2022-09-22T08:08:44.654Z,69.47
2022-09-22T08:11:15.039Z,69.17
2022-09-22T08:13:44.226Z,67.76
2022-09-22T08:16:11.911Z,68.71
2022-09-22T08:18:40.922Z,66.89
2022-09-22T08:21:08.488Z,66.32
2022-09-22T08:23:37.441Z,66.82
2022-09-22T08:26:05.959Z,67.95
2022-09-22T08:28:33.577Z,66.13
2022-09-22T08:31:01.677Z,69.02
2022-09-22T08:33:30.986Z,66.82
2022-09-22T08:36:03.661Z,65.88
2022-09-22T08:38:32.218Z,61.20
2022-09-22T08:41:07.772Z,60.58
2022-09-22T08:43:35.653Z,59.43
2022-09-22T08:46:04.420Z,58.95
2022-09-22T08:48:50.622Z,57.73
2022-09-22T08:51:47.323Z,54.91
2022-09-22T08:54:15.266Z,56.15
2022-09-22T08:56:45.340Z,54.91
2022-09-22T08:59:16.561Z,55.37
2022-09-22T09:01:51.260Z,57.80
2022-09-22T09:04:45.215Z,50.09
2022-09-22T09:07:17.890Z,51.67
2022-09-22T09:09:51.504Z,49.85
2022-09-22T09:12:25.496Z,48.26
2022-09-22T09:15:05.774Z,48.67
2022-09-22T09:17:35.636Z,43.69
2022-09-22T09:20:11.080Z,45.65
2022-09-22T09:22:45.019Z,48.51
2022-09-22T09:25:24.242Z,45.79
2022-09-22T09:27:54.724Z,45.23
2022-09-22T09:30:23.103Z,41.26
2022-09-22T09:32:52.401Z,41.21
2022-09-22T09:35:24.051Z,45.58
2022-09-22T09:37:55.055Z,44.73
2022-09-22T09:40:22.650Z,46.96
2022-09-22T09:42:54.672Z,44.02
2022-09-22T09:45:26.953Z,42.06
2022-09-22T09:48:06.596Z,43.45
2022-09-22T09:50:34.224Z,40.88
2022-09-22T09:53:03.203Z,41.87
2022-09-22T09:55:33.547Z,42.22
2022-09-22T09:58:09.105Z,39.12
2022-09-22T10:00:52.780Z,36.68
2022-09-22T10:03:25.005Z,39.43
2022-09-22T10:05:59.021Z,42.78
2022-09-22T10:08:29.020Z,40.23
2022-09-22T10:10:58.251Z,38.36
2022-09-22T10:13:30.472Z,38.85
2022-09-22T10:16:06.142Z,42.17
2022-09-22T10:18:35.489Z,39.22
2022-09-22T10:21:04.247Z,40.79
2022-09-22T10:23:33.324Z,41.84
2022-09-22T10:26:26.268Z,42.00
2022-09-22T10:29:24.135Z,39.26
2022-09-22T10:32:02.740Z,39.78
2022-09-22T10:34:31.574Z,40.90
2022-09-22T10:36:59.935Z,43.22
2022-09-22T10:39:33.702Z,42.33
2022-09-22T10:42:02.884Z,40.00
2022-09-22T10:44:39.249Z,40.85
2022-09-22T10:47:14.771Z,40.73
2022-09-22T10:49:50.580Z,40.40
2022-09-22T10:52:21.735Z,39.96
2022-09-22T10:55:10.112Z,39.51
2022-09-22T10:57:48.273Z,39.57
2022-09-22T11:00:17.182Z,40.67
2022-09-22T11:03:05.537Z,40.28
2022-09-22T11:06:03.954Z,40.63
2022-09-22T11:08:51.718Z,42.98
2022-09-22T11:11:41.622Z,40.91
2022-09-22T11:14:14.994Z,39.05
2022-09-22T11:16:53.281Z,41.04
2022-09-22T11:19:37.995Z,40.82
2022-09-22T11:22:14.458Z,40.48
2022-09-22T11:24:56.332Z,40.75
2022-09-22T11:27:32.034Z,39.63
2022-09-22T11:30:11.371Z,40.42
2022-09-22T11:32:50.916Z,38.03
2022-09-22T11:35:45.488Z,37.06
2022-09-22T11:38:22.049Z,37.40
2022-09-22T11:41:00.237Z,38.87
2022-09-22T11:43:36.786Z,37.29
2022-09-22T11:46:09.466Z,38.29
2022-09-22T11:48:46.131Z,38.80
2022-09-22T11:51:35.387Z,39.02
2022-09-22T11:54:15.116Z,37.33
2022-09-22T11:56:44.581Z,37.14
2022-09-22T11:59:22.662Z,38.30
2022-09-22T12:01:50.831Z,39.38
2022-09-22T12:04:22.930Z,36.61
2022-09-22T12:06:52.479Z,39.52
2022-09-22T12:09:26.258Z,39.03
2022-09-22T12:11:56.024Z,39.55
2022-09-22T12:14:27.452Z,37.56
2022-09-22T12:16:58.717Z,39.44
2022-09-22T12:19:31.264Z,38.34
2022-09-22T12:22:05.144Z,39.21
2022-09-22T12:24:33.186Z,39.05
2022-09-22T12:27:10.746Z,38.28
2022-09-22T12:29:41.490Z,39.74
2022-09-22T12:32:21.366Z,38.68
2022-09-22T12:34:49.108Z,39.78
2022-09-22T12:37:28.479Z,39.54
2022-09-22T12:39:57.177Z,40.75
2022-09-22T12:42:27.019Z,38.92
2022-09-22T12:44:58.617Z,41.66
2022-09-22T12:47:32.220Z,42.38
2022-09-22T12:50:00.776Z,42.96
2022-09-22T12:52:47.363Z,40.16
2022-09-22T12:55:18.937Z,42.70
2022-09-22T12:57:47.794Z,42.29
2022-09-22T13:00:33.614Z,41.51
2022-09-22T13:03:02.010Z,43.32
2022-09-22T13:05:37.084Z,44.02
2022-09-22T13:08:04.751Z,42.09
2022-09-22T13:10:41.366Z,42.65
2022-09-22T13:13:24.630Z,43.02
2022-09-22T13:15:59.344Z,45.45
2022-09-22T13:18:34.494Z,43.13
2022-09-22T13:21:02.809Z,45.14
2022-09-22T13:23:30.715Z,44.26
2022-09-22T13:26:16.256Z,45.11
2022-09-22T13:28:44.121Z,45.95
2022-09-22T13:31:14.887Z,45.65
2022-09-22T13:33:42.861Z,45.07
2022-09-22T13:36:13.250Z,46.83
2022-09-22T13:38:42.069Z,47.07
2022-09-22T13:41:12.135Z,46.25
2022-09-22T13:43:41.191Z,45.46
2022-09-22T13:46:11.732Z,45.89
2022-09-22T13:48:40.766Z,47.21
2022-09-22T13:51:09.461Z,46.72
2022-09-22T13:53:37.617Z,46.03
2022-09-22T13:56:05.802Z,46.25
2022-09-22T13:58:36.495Z,46.01
2022-09-22T14:01:13.885Z,47.33
2022-09-22T14:03:44.164Z,47.36
2022-09-22T14:06:14.175Z,47.24
2022-09-22T14:08:42.446Z,47.59
2022-09-22T14:11:13.440Z,47.53
2022-09-22T14:13:42.423Z,47.60
2022-09-22T14:16:13.264Z,49.10
2022-09-22T14:18:43.627Z,48.64
2022-09-22T14:21:13.086Z,48.69
2022-09-22T14:23:44.465Z,48.75
2022-09-22T14:26:33.495Z,49.77
2022-09-22T14:29:10.652Z,49.65
2022-09-22T14:31:40.289Z,48.17
2022-09-22T14:34:09.070Z,48.39
2022-09-22T14:36:38.858Z,48.61
2022-09-22T14:39:10.440Z,48.76
2022-09-22T14:41:39.432Z,48.44
2022-09-22T14:44:35.169Z,49.50
2022-09-22T14:47:08.669Z,48.47
2022-09-22T14:49:37.019Z,49.74
2022-09-22T14:52:08.252Z,50.02
2022-09-22T14:54:36.071Z,51.01
2022-09-22T14:57:06.615Z,51.26
2022-09-22T14:59:53.167Z,51.91
2022-09-22T15:02:33.017Z,52.00
2022-09-22T15:05:03.385Z,52.31
2022-09-22T15:07:33.697Z,52.29
2022-09-22T15:10:02.635Z,53.10
2022-09-22T15:12:40.066Z,53.30
2022-09-22T15:15:26.273Z,51.24
2022-09-22T15:18:15.957Z,51.75
2022-09-22T15:20:44.896Z,51.35
2022-09-22T15:23:18.387Z,52.98
2022-09-22T15:25:46.398Z,50.94
2022-09-22T15:28:14.750Z,50.38
2022-09-22T15:30:44.339Z,51.31
2022-09-22T15:33:14.698Z,52.57
2022-09-22T15:35:42.513Z,53.15
2022-09-22T15:38:15.009Z,52.44
2022-09-22T15:40:44.498Z,52.66
2022-09-22T15:43:13.719Z,52.55
2022-09-22T15:45:47.552Z,53.85
2022-09-22T15:48:26.320Z,54.06
2022-09-22T15:50:54.012Z,54.15
2022-09-22T15:53:23.013Z,54.66
2022-09-22T15:55:52.290Z,54.78
2022-09-22T15:58:22.840Z,54.91
2022-09-22T16:00:51.209Z,54.71
2022-09-22T16:03:22.233Z,55.12
2022-09-22T16:05:51.766Z,55.10
2022-09-22T16:08:22.394Z,55.78
2022-09-22T16:10:49.917Z,55.88
2022-09-22T16:13:20.008Z,56.43
2022-09-22T16:15:50.285Z,57.23
2022-09-22T16:18:18.165Z,58.29
2022-09-22T16:20:47.042Z,58.58
2022-09-22T16:23:14.771Z,58.89
2022-09-22T16:25:42.675Z,59.18
2022-09-22T16:28:10.876Z,59.17
2022-09-22T16:30:40.315Z,60.02
2022-09-22T16:33:07.857Z,60.15
2022-09-22T16:35:35.456Z,61.07
2022-09-22T16:38:03.502Z,61.60
2022-09-22T16:40:31.351Z,61.81
2022-09-22T16:42:58.988Z,62.10
2022-09-22T16:45:43.927Z,62.35
2022-09-22T16:48:13.042Z,62.68
2022-09-22T16:50:42.993Z,62.89
2022-09-22T16:53:11.093Z,63.20
2022-09-22T16:55:38.676Z,63.39
2022-09-22T16:58:07.264Z,63.31
2022-09-22T17:00:34.980Z,63.49
2022-09-22T17:03:02.581Z,63.48
2022-09-22T17:05:32.723Z,63.66
2022-09-22T17:08:04.713Z,63.58
2022-09-22T17:10:35.868Z,64.23
2022-09-22T17:13:04.903Z,64.30
2022-09-22T17:15:36.008Z,65.20
2022-09-22T17:18:04.196Z,65.45
2022-09-22T17:20:33.160Z,65.83
2022-09-22T17:23:00.694Z,66.01
2022-09-22T17:25:29.096Z,66.08
2022-09-22T17:27:57.751Z,66.16
2022-09-22T17:30:25.319Z,66.43
2022-09-22T17:32:53.522Z,66.64
2022-09-22T17:35:21.093Z,67.14
2022-09-22T17:37:52.164Z,67.64
2022-09-22T17:40:19.864Z,67.88
2022-09-22T17:42:48.235Z,68.24
2022-09-22T17:45:16.040Z,68.66
2022-09-22T17:48:01.192Z,69.23
2022-09-22T17:50:46.493Z,69.79
2022-09-22T17:53:32.956Z,70.19
2022-09-22T17:56:05.071Z,70.42
2022-09-22T17:58:32.845Z,70.96
2022-09-22T18:01:00.627Z,71.64
2022-09-22T18:03:29.024Z,72.16
2022-09-22T18:05:56.691Z,72.39
2022-09-22T18:08:25.703Z,72.93
2022-09-22T18:10:54.422Z,73.22
2022-09-22T18:13:22.016Z,73.63
2022-09-22T18:15:50.068Z,73.99
2022-09-22T18:18:17.676Z,74.40
2022-09-22T18:20:45.222Z,74.62
2022-09-22T18:23:13.012Z,75.06
2022-09-22T18:25:42.145Z,75.49
2022-09-22T18:28:09.652Z,75.75
2022-09-22T18:30:40.008Z,76.41
2022-09-22T18:33:07.562Z,77.33
2022-09-22T18:35:35.129Z,77.28
2022-09-22T18:38:03.031Z,77.81
2022-09-22T18:40:30.603Z,77.88
2022-09-22T18:42:59.506Z,78.09
2022-09-22T18:45:27.618Z,78.53
2022-09-22T18:47:59.039Z,78.66
2022-09-22T18:50:26.998Z,79.29
2022-09-22T18:52:56.671Z,79.47
2022-09-22T18:55:24.225Z,80.30
2022-09-22T18:57:51.826Z,80.57
2022-09-22T19:00:22.142Z,80.83
2022-09-22T19:02:50.262Z,81.06
2022-09-22T19:05:17.985Z,81.49
2022-09-22T19:07:47.610Z,81.70
2022-09-22T19:10:20.551Z,82.37
2022-09-22T19:12:48.229Z,82.89
2022-09-22T19:15:19.090Z,83.03
2022-09-22T19:17:49.590Z,83.45
2022-09-22T19:20:18.613Z,83.70
2022-09-22T19:22:46.809Z,83.90
2022-09-22T19:25:14.995Z,84.13
2022-09-22T19:27:42.644Z,84.36
2022-09-22T19:30:11.263Z,85.16
2022-09-22T19:32:39.414Z,85.14
2022-09-22T19:35:09.177Z,86.32
2022-09-22T19:37:37.152Z,86.02
2022-09-22T19:40:05.372Z,86.15
2022-09-22T19:42:40.128Z,86.57
2022-09-22T19:45:08.211Z,86.62
2022-09-22T19:47:35.799Z,87.14
2022-09-22T19:50:03.813Z,87.45
2022-09-22T19:52:32.729Z,87.45
2022-09-22T19:55:00.279Z,87.35
2022-09-22T19:57:27.847Z,87.53
2022-09-22T19:59:56.242Z,87.89
2022-09-22T20:02:24.091Z,88.10
2022-09-22T20:04:51.698Z,88.29
2022-09-22T20:07:19.229Z,88.34
2022-09-22T20:09:48.119Z,88.94
2022-09-22T20:12:15.637Z,89.00
2022-09-22T20:14:43.208Z,89.58
2022-09-22T20:17:10.763Z,89.41
2022-09-22T20:19:39.458Z,89.43
2022-09-22T20:22:17.726Z,89.69
2022-09-22T20:24:48.297Z,89.99
2022-09-22T20:27:17.150Z,90.15
2022-09-22T20:29:44.765Z,90.42
2022-09-22T20:32:12.289Z,90.88
2022-09-22T20:34:40.259Z,90.75
2022-09-22T20:37:07.947Z,91.16
2022-09-22T20:39:35.494Z,91.20
2022-09-22T20:42:03.295Z,91.18
2022-09-22T20:44:32.238Z,91.66
2022-09-22T20:47:00.538Z,91.66
2022-09-22T20:49:28.089Z,91.83
2022-09-22T20:51:56.448Z,91.67
2022-09-22T20:54:24.608Z,92.12
2022-09-22T20:56:53.344Z,92.10
2022-09-22T20:59:21.474Z,92.55
2022-09-22T21:01:50.415Z,92.91
2022-09-22T21:04:18.057Z,93.15
2022-09-22T21:06:45.600Z,93.31
2022-09-22T21:09:30.429Z,93.36
2022-09-22T21:11:57.939Z,93.84
2022-09-22T21:14:25.503Z,94.19
2022-09-22T21:16:54.363Z,94.25
2022-09-22T21:19:21.927Z,94.59
2022-09-22T21:21:49.699Z,94.42
2022-09-22T21:24:17.202Z,94.71
2022-09-22T21:26:44.781Z,94.55
2022-09-22T21:29:12.310Z,94.88
2022-09-22T21:31:39.824Z,94.96
2022-09-22T21:34:08.699Z,94.99
2022-09-22T21:36:36.357Z,94.83
2022-09-22T21:39:03.960Z,95.19
2022-09-22T21:41:32.698Z,95.76
2022-09-22T21:44:00.453Z,95.75
2022-09-22T21:46:29.605Z,95.91
2022-09-22T21:49:01.749Z,96.37
2022-09-22T21:51:34.299Z,96.51
2022-09-22T21:54:02.943Z,97.99
2022-09-22T21:56:31.108Z,97.58
2022-09-22T21:58:58.669Z,97.45
2022-09-22T22:01:26.994Z,97.59
2022-09-22T22:03:55.355Z,97.65
2022-09-22T22:06:24.495Z,97.44
2022-09-22T22:08:54.260Z,97.26
2022-09-22T22:11:22.745Z,97.88
2022-09-22T22:13:52.150Z,98.23
2022-09-22T22:16:20.621Z,98.30
2022-09-22T22:18:48.563Z,98.31
2022-09-22T22:21:17.403Z,98.42
2022-09-22T22:23:46.196Z,98.41
2022-09-22T22:26:16.298Z,97.89
2022-09-22T22:28:44.884Z,98.64
2022-09-22T22:31:13.140Z,98.62
2022-09-22T22:33:41.463Z,98.28
2022-09-22T22:36:09.827Z,98.11
2022-09-22T22:38:38.102Z,98.41
2022-09-22T22:41:06.439Z,98.31
2022-09-22T22:43:35.669Z,98.80
2022-09-22T22:46:03.272Z,98.89
2022-09-22T22:48:31.130Z,98.83
2022-09-22T22:50:58.971Z,99.13
2022-09-22T22:53:26.744Z,98.84
2022-09-22T22:55:55.534Z,98.54
2022-09-22T22:58:23.490Z,98.34
2022-09-22T23:00:59.276Z,98.06
2022-09-22T23:03:27.308Z,98.34
2022-09-22T23:05:58.397Z,98.08
2022-09-22T23:08:26.327Z,98.10
2022-09-22T23:10:59.351Z,97.78
2022-09-22T23:13:29.203Z,97.65
2022-09-22T23:16:08.400Z,97.60
2022-09-22T23:18:37.882Z,98.09
2022-09-22T23:21:05.579Z,97.79
2022-09-22T23:23:33.134Z,97.52
2022-09-22T23:26:01.149Z,97.35
2022-09-22T23:28:28.885Z,97.63
2022-09-22T23:30:57.308Z,97.48
2022-09-22T23:33:26.708Z,97.25
2022-09-22T23:35:55.386Z,97.61
2022-09-22T23:38:23.162Z,97.56
2022-09-22T23:40:50.855Z,97.96
2022-09-22T23:43:18.663Z,98.15
2022-09-22T23:45:46.660Z,98.24
2022-09-22T23:48:14.257Z,98.32
2022-09-22T23:50:46.282Z,98.64
2022-09-22T23:53:13.991Z,99.20
2022-09-22T23:55:41.925Z,100.00
2022-09-22T23:58:09.766Z,99.91
